Oak Hill, Florida
Current Conditions -  °F | °C
As of 12:50 PM on Thursday 30 Oct 2014 (Local Time) from KEVB Reporting Station
Scattered Clouds Scattered Clouds  
Wind Chill: 81°   Ceiling: Unl
Heat Index: 82°   Visibility: 10mi
Dew Point: 63°   Wind: 6mph
Humidity: 54%   Direction: 270°W
Pressure: 30"   Gusts: NA
Location:  28.86°N, 80.85°W
Report Text: KEVB 301650Z 27005KT 10SM SCT030 27/17 A3000
Loading
Personal Weather Stations






























Interactive Weather Map New forecast layout! Learn more

10-Day Weather Forecast

Advertisements
Track Severe Weather on mobile